sensor_id;sensor_type;location;lat;lon;timestamp;P1;durP1;ratioP1;P2;durP2;ratioP2
13439;SDS011;6792;57.698;11.946;2022-11-12T00:01:33;16.87;;;3.12;;
13439;SDS011;6792;57.698;11.946;2022-11-12T00:04:02;23.45;;;3.15;;
13439;SDS011;6792;57.698;11.946;2022-11-12T00:06:32;20.10;;;3.62;;
13439;SDS011;6792;57.698;11.946;2022-11-12T00:12:32;18.45;;;3.30;;
13439;SDS011;6792;57.698;11.946;2022-11-12T00:15:10;19.62;;;3.33;;
13439;SDS011;6792;57.698;11.946;2022-11-12T00:17:42;11.18;;;2.47;;
13439;SDS011;6792;57.698;11.946;2022-11-12T00:20:16;14.28;;;3.20;;
13439;SDS011;6792;57.698;11.946;2022-11-12T00:22:47;22.58;;;3.45;;
13439;SDS011;6792;57.698;11.946;2022-11-12T00:25:21;19.87;;;3.37;;
13439;SDS011;6792;57.698;11.946;2022-11-12T00:27:50;23.80;;;3.27;;
13439;SDS011;6792;57.698;11.946;2022-11-12T00:30:19;20.05;;;3.37;;
13439;SDS011;6792;57.698;11.946;2022-11-12T00:32:48;20.52;;;3.10;;
13439;SDS011;6792;57.698;11.946;2022-11-12T00:35:17;22.07;;;4.10;;
13439;SDS011;6792;57.698;11.946;2022-11-12T00:37:46;15.35;;;2.98;;
13439;SDS011;6792;57.698;11.946;2022-11-12T00:40:16;25.02;;;3.47;;
13439;SDS011;6792;57.698;11.946;2022-11-12T00:42:45;16.27;;;3.12;;
13439;SDS011;6792;57.698;11.946;2022-11-12T00:45:14;17.23;;;3.17;;
13439;SDS011;6792;57.698;11.946;2022-11-12T00:47:43;19.82;;;3.40;;
13439;SDS011;6792;57.698;11.946;2022-11-12T00:50:12;24.57;;;3.85;;
13439;SDS011;6792;57.698;11.946;2022-11-12T00:52:42;19.07;;;3.22;;
13439;SDS011;6792;57.698;11.946;2022-11-12T00:55:10;21.42;;;3.45;;
13439;SDS011;6792;57.698;11.946;2022-11-12T00:57:39;20.60;;;3.47;;
13439;SDS011;6792;57.698;11.946;2022-11-12T01:00:13;17.32;;;3.37;;
13439;SDS011;6792;57.698;11.946;2022-11-12T01:02:45;14.83;;;3.25;;
13439;SDS011;6792;57.698;11.946;2022-11-12T01:05:13;16.40;;;3.52;;
13439;SDS011;6792;57.698;11.946;2022-11-12T01:07:43;17.37;;;3.90;;
13439;SDS011;6792;57.698;11.946;2022-11-12T01:10:12;21.42;;;4.12;;
13439;SDS011;6792;57.698;11.946;2022-11-12T01:12:42;15.60;;;3.33;;
13439;SDS011;6792;57.698;11.946;2022-11-12T01:15:11;22.02;;;3.95;;
13439;SDS011;6792;57.698;11.946;2022-11-12T01:17:40;17.20;;;3.15;;
13439;SDS011;6792;57.698;11.946;2022-11-12T01:20:09;18.87;;;3.05;;
13439;SDS011;6792;57.698;11.946;2022-11-12T01:22:38;21.37;;;3.47;;
13439;SDS011;6792;57.698;11.946;2022-11-12T01:25:07;12.90;;;3.20;;
13439;SDS011;6792;57.698;11.946;2022-11-12T01:27:36;24.02;;;3.95;;
13439;SDS011;6792;57.698;11.946;2022-11-12T01:30:06;21.52;;;3.80;;
13439;SDS011;6792;57.698;11.946;2022-11-12T01:32:36;18.82;;;3.45;;
13439;SDS011;6792;57.698;11.946;2022-11-12T01:35:06;19.60;;;3.40;;
13439;SDS011;6792;57.698;11.946;2022-11-12T01:37:35;21.85;;;3.33;;
13439;SDS011;6792;57.698;11.946;2022-11-12T01:40:05;25.75;;;3.47;;
13439;SDS011;6792;57.698;11.946;2022-11-12T01:42:35;19.60;;;3.60;;
13439;SDS011;6792;57.698;11.946;2022-11-12T01:45:10;15.32;;;3.62;;
13439;SDS011;6792;57.698;11.946;2022-11-12T01:47:41;20.35;;;3.70;;
13439;SDS011;6792;57.698;11.946;2022-11-12T01:50:14;27.25;;;3.67;;
13439;SDS011;6792;57.698;11.946;2022-11-12T01:52:46;18.32;;;3.10;;
13439;SDS011;6792;57.698;11.946;2022-11-12T01:55:20;20.75;;;3.83;;
13439;SDS011;6792;57.698;11.946;2022-11-12T01:57:52;24.23;;;3.92;;
13439;SDS011;6792;57.698;11.946;2022-11-12T02:00:23;21.52;;;4.05;;
13439;SDS011;6792;57.698;11.946;2022-11-12T02:02:53;24.67;;;3.80;;
13439;SDS011;6792;57.698;11.946;2022-11-12T02:05:24;24.45;;;4.17;;
13439;SDS011;6792;57.698;11.946;2022-11-12T02:07:56;19.90;;;3.15;;
13439;SDS011;6792;57.698;11.946;2022-11-12T02:10:27;21.68;;;3.12;;
13439;SDS011;6792;57.698;11.946;2022-11-12T02:12:57;21.62;;;3.58;;
13439;SDS011;6792;57.698;11.946;2022-11-12T02:15:43;20.62;;;3.42;;
13439;SDS011;6792;57.698;11.946;2022-11-12T02:18:12;20.12;;;3.83;;
13439;SDS011;6792;57.698;11.946;2022-11-12T02:20:42;21.50;;;3.47;;
13439;SDS011;6792;57.698;11.946;2022-11-12T02:23:11;18.95;;;3.30;;
13439;SDS011;6792;57.698;11.946;2022-11-12T02:25:40;20.88;;;3.92;;
13439;SDS011;6792;57.698;11.946;2022-11-12T02:28:08;20.15;;;3.40;;
13439;SDS011;6792;57.698;11.946;2022-11-12T02:30:39;25.12;;;3.58;;
13439;SDS011;6792;57.698;11.946;2022-11-12T02:33:09;18.90;;;3.22;;
13439;SDS011;6792;57.698;11.946;2022-11-12T02:35:38;17.65;;;3.20;;
13439;SDS011;6792;57.698;11.946;2022-11-12T02:38:07;22.13;;;3.17;;
13439;SDS011;6792;57.698;11.946;2022-11-12T02:40:36;12.03;;;2.62;;
13439;SDS011;6792;57.698;11.946;2022-11-12T02:43:05;21.35;;;3.40;;
13439;SDS011;6792;57.698;11.946;2022-11-12T02:45:34;18.70;;;3.58;;
13439;SDS011;6792;57.698;11.946;2022-11-12T02:48:03;20.12;;;3.00;;
13439;SDS011;6792;57.698;11.946;2022-11-12T02:50:32;14.85;;;3.35;;
13439;SDS011;6792;57.698;11.946;2022-11-12T02:53:01;18.10;;;3.65;;
13439;SDS011;6792;57.698;11.946;2022-11-12T02:55:30;27.75;;;3.87;;
13439;SDS011;6792;57.698;11.946;2022-11-12T02:57:59;18.90;;;3.30;;
13439;SDS011;6792;57.698;11.946;2022-11-12T03:00:28;15.20;;;3.10;;
13439;SDS011;6792;57.698;11.946;2022-11-12T03:02:57;18.45;;;3.27;;
13439;SDS011;6792;57.698;11.946;2022-11-12T03:05:27;18.57;;;3.37;;
13439;SDS011;6792;57.698;11.946;2022-11-12T03:07:57;16.55;;;2.92;;
13439;SDS011;6792;57.698;11.946;2022-11-12T03:10:27;21.25;;;3.37;;
13439;SDS011;6792;57.698;11.946;2022-11-12T03:12:57;21.05;;;3.40;;
13439;SDS011;6792;57.698;11.946;2022-11-12T03:15:27;23.15;;;4.00;;
13439;SDS011;6792;57.698;11.946;2022-11-12T03:17:57;25.15;;;3.95;;
13439;SDS011;6792;57.698;11.946;2022-11-12T03:20:26;24.50;;;3.58;;
13439;SDS011;6792;57.698;11.946;2022-11-12T03:22:56;19.98;;;3.65;;
13439;SDS011;6792;57.698;11.946;2022-11-12T03:25:26;21.45;;;3.22;;
13439;SDS011;6792;57.698;11.946;2022-11-12T03:27:57;18.07;;;3.52;;
13439;SDS011;6792;57.698;11.946;2022-11-12T03:30:26;19.73;;;3.25;;
13439;SDS011;6792;57.698;11.946;2022-11-12T03:32:58;24.40;;;3.80;;
13439;SDS011;6792;57.698;11.946;2022-11-12T03:35:27;15.98;;;3.12;;
13439;SDS011;6792;57.698;11.946;2022-11-12T03:37:57;19.37;;;3.25;;
13439;SDS011;6792;57.698;11.946;2022-11-12T03:40:26;16.50;;;3.47;;
13439;SDS011;6792;57.698;11.946;2022-11-12T03:42:56;19.80;;;3.67;;
13439;SDS011;6792;57.698;11.946;2022-11-12T03:45:26;19.57;;;3.10;;
13439;SDS011;6792;57.698;11.946;2022-11-12T03:47:56;22.98;;;3.92;;
13439;SDS011;6792;57.698;11.946;2022-11-12T03:50:26;22.50;;;3.30;;
13439;SDS011;6792;57.698;11.946;2022-11-12T03:52:57;28.87;;;4.08;;
13439;SDS011;6792;57.698;11.946;2022-11-12T03:55:26;21.68;;;3.60;;
13439;SDS011;6792;57.698;11.946;2022-11-12T03:57:56;21.07;;;3.98;;
13439;SDS011;6792;57.698;11.946;2022-11-12T04:00:26;21.42;;;4.08;;
13439;SDS011;6792;57.698;11.946;2022-11-12T04:02:58;20.32;;;3.58;;
13439;SDS011;6792;57.698;11.946;2022-11-12T04:05:27;17.52;;;3.05;;
13439;SDS011;6792;57.698;11.946;2022-11-12T04:08:14;25.50;;;3.92;;
13439;SDS011;6792;57.698;11.946;2022-11-12T04:11:03;20.48;;;3.60;;
13439;SDS011;6792;57.698;11.946;2022-11-12T04:13:34;23.55;;;3.47;;
13439;SDS011;6792;57.698;11.946;2022-11-12T04:16:05;22.80;;;3.70;;
13439;SDS011;6792;57.698;11.946;2022-11-12T04:18:54;15.35;;;3.55;;
13439;SDS011;6792;57.698;11.946;2022-11-12T04:21:42;17.45;;;3.55;;
13439;SDS011;6792;57.698;11.946;2022-11-12T04:24:22;28.77;;;4.03;;
13439;SDS011;6792;57.698;11.946;2022-11-12T04:27:12;21.60;;;3.65;;
13439;SDS011;6792;57.698;11.946;2022-11-12T04:29:42;18.98;;;3.50;;
13439;SDS011;6792;57.698;11.946;2022-11-12T04:32:31;26.57;;;4.12;;
13439;SDS011;6792;57.698;11.946;2022-11-12T04:35:01;24.35;;;3.65;;
13439;SDS011;6792;57.698;11.946;2022-11-12T04:37:32;20.57;;;3.42;;
13439;SDS011;6792;57.698;11.946;2022-11-12T04:40:11;21.52;;;3.40;;
13439;SDS011;6792;57.698;11.946;2022-11-12T17:53:32;19.65;;;3.52;;
13439;SDS011;6792;57.698;11.946;2022-11-12T17:56:01;21.05;;;3.67;;
13439;SDS011;6792;57.698;11.946;2022-11-12T17:58:31;19.70;;;3.12;;
13439;SDS011;6792;57.698;11.946;2022-11-12T18:01:03;13.13;;;2.90;;
13439;SDS011;6792;57.698;11.946;2022-11-12T18:03:36;20.70;;;4.50;;
13439;SDS011;6792;57.698;11.946;2022-11-12T18:06:06;18.67;;;3.62;;
13439;SDS011;6792;57.698;11.946;2022-11-12T18:08:38;11.00;;;2.90;;
13439;SDS011;6792;57.698;11.946;2022-11-12T18:11:09;22.80;;;4.08;;
13439;SDS011;6792;57.698;11.946;2022-11-12T18:13:39;12.10;;;2.55;;
13439;SDS011;6792;57.698;11.946;2022-11-12T18:16:15;14.30;;;2.85;;
13439;SDS011;6792;57.698;11.946;2022-11-12T18:18:46;13.65;;;2.55;;
13439;SDS011;6792;57.698;11.946;2022-11-12T18:21:15;10.35;;;2.55;;
13439;SDS011;6792;57.698;11.946;2022-11-12T18:23:45;15.58;;;2.75;;
13439;SDS011;6792;57.698;11.946;2022-11-12T18:26:18;15.03;;;3.75;;
13439;SDS011;6792;57.698;11.946;2022-11-12T18:28:50;16.62;;;3.22;;
13439;SDS011;6792;57.698;11.946;2022-11-12T18:31:19;12.00;;;3.52;;
13439;SDS011;6792;57.698;11.946;2022-11-12T18:33:49;17.92;;;8.78;;
13439;SDS011;6792;57.698;11.946;2022-11-12T18:36:20;14.25;;;5.37;;
13439;SDS011;6792;57.698;11.946;2022-11-12T18:38:53;19.80;;;4.75;;
13439;SDS011;6792;57.698;11.946;2022-11-12T18:41:23;17.45;;;4.22;;
13439;SDS011;6792;57.698;11.946;2022-11-12T18:43:55;18.23;;;3.92;;
13439;SDS011;6792;57.698;11.946;2022-11-12T18:46:26;17.27;;;3.75;;
13439;SDS011;6792;57.698;11.946;2022-11-12T18:48:55;23.35;;;4.17;;
13439;SDS011;6792;57.698;11.946;2022-11-12T18:51:24;18.02;;;4.22;;
13439;SDS011;6792;57.698;11.946;2022-11-12T18:53:54;20.27;;;3.40;;
13439;SDS011;6792;57.698;11.946;2022-11-12T18:56:23;19.82;;;3.95;;
13439;SDS011;6792;57.698;11.946;2022-11-12T18:58:52;19.40;;;4.10;;
13439;SDS011;6792;57.698;11.946;2022-11-12T19:01:22;15.15;;;3.62;;
13439;SDS011;6792;57.698;11.946;2022-11-12T19:03:52;19.07;;;3.60;;
13439;SDS011;6792;57.698;11.946;2022-11-12T19:06:24;15.68;;;3.45;;
13439;SDS011;6792;57.698;11.946;2022-11-12T19:08:57;15.95;;;3.75;;
13439;SDS011;6792;57.698;11.946;2022-11-12T19:11:26;11.38;;;3.25;;
13439;SDS011;6792;57.698;11.946;2022-11-12T19:13:56;20.95;;;3.72;;
13439;SDS011;6792;57.698;11.946;2022-11-12T19:16:25;15.03;;;3.60;;
13439;SDS011;6792;57.698;11.946;2022-11-12T19:18:54;15.48;;;4.15;;
13439;SDS011;6792;57.698;11.946;2022-11-12T19:21:36;14.18;;;3.52;;
13439;SDS011;6792;57.698;11.946;2022-11-12T19:24:09;12.40;;;3.52;;
13439;SDS011;6792;57.698;11.946;2022-11-12T19:26:38;17.40;;;4.20;;
13439;SDS011;6792;57.698;11.946;2022-11-12T19:29:08;14.55;;;4.25;;
13439;SDS011;6792;57.698;11.946;2022-11-12T19:31:44;15.40;;;4.10;;
13439;SDS011;6792;57.698;11.946;2022-11-12T19:34:15;15.83;;;3.62;;
13439;SDS011;6792;57.698;11.946;2022-11-12T19:36:46;15.15;;;4.12;;
13439;SDS011;6792;57.698;11.946;2022-11-12T19:39:15;15.15;;;5.40;;
13439;SDS011;6792;57.698;11.946;2022-11-12T19:41:47;22.40;;;5.55;;
13439;SDS011;6792;57.698;11.946;2022-11-12T19:44:16;12.95;;;3.08;;
13439;SDS011;6792;57.698;11.946;2022-11-12T19:46:46;10.00;;;3.40;;
13439;SDS011;6792;57.698;11.946;2022-11-12T19:49:16;10.53;;;2.75;;
13439;SDS011;6792;57.698;11.946;2022-11-12T19:51:47;13.25;;;2.62;;
13439;SDS011;6792;57.698;11.946;2022-11-12T19:54:17;8.05;;;2.25;;
13439;SDS011;6792;57.698;11.946;2022-11-12T19:56:47;12.33;;;2.72;;
13439;SDS011;6792;57.698;11.946;2022-11-12T19:59:19;14.45;;;2.37;;
13439;SDS011;6792;57.698;11.946;2022-11-12T20:01:49;11.70;;;2.47;;
13439;SDS011;6792;57.698;11.946;2022-11-12T20:04:22;9.50;;;2.45;;
13439;SDS011;6792;57.698;11.946;2022-11-12T20:06:51;10.45;;;2.50;;
13439;SDS011;6792;57.698;11.946;2022-11-12T20:09:20;8.13;;;2.22;;
13439;SDS011;6792;57.698;11.946;2022-11-12T20:11:50;6.15;;;1.90;;
13439;SDS011;6792;57.698;11.946;2022-11-12T20:14:19;4.62;;;1.77;;
13439;SDS011;6792;57.698;11.946;2022-11-12T20:16:49;6.03;;;1.90;;
13439;SDS011;6792;57.698;11.946;2022-11-12T20:19:18;6.12;;;1.85;;
13439;SDS011;6792;57.698;11.946;2022-11-12T20:21:47;7.65;;;1.92;;
13439;SDS011;6792;57.698;11.946;2022-11-12T20:24:19;7.20;;;1.70;;
13439;SDS011;6792;57.698;11.946;2022-11-12T20:26:48;8.48;;;1.62;;
13439;SDS011;6792;57.698;11.946;2022-11-12T20:29:17;4.67;;;1.47;;
13439;SDS011;6792;57.698;11.946;2022-11-12T20:31:46;7.87;;;1.50;;
13439;SDS011;6792;57.698;11.946;2022-11-12T20:34:15;11.45;;;1.70;;
13439;SDS011;6792;57.698;11.946;2022-11-12T20:36:44;10.72;;;2.20;;
13439;SDS011;6792;57.698;11.946;2022-11-12T20:39:14;7.42;;;1.98;;
13439;SDS011;6792;57.698;11.946;2022-11-12T20:41:43;9.63;;;1.75;;
13439;SDS011;6792;57.698;11.946;2022-11-12T20:44:13;7.90;;;2.27;;
13439;SDS011;6792;57.698;11.946;2022-11-12T20:46:43;7.75;;;2.33;;
13439;SDS011;6792;57.698;11.946;2022-11-12T20:49:12;6.80;;;2.50;;
13439;SDS011;6792;57.698;11.946;2022-11-12T20:51:44;8.10;;;2.50;;
13439;SDS011;6792;57.698;11.946;2022-11-12T20:54:13;8.48;;;2.12;;
13439;SDS011;6792;57.698;11.946;2022-11-12T20:56:42;9.85;;;1.98;;
13439;SDS011;6792;57.698;11.946;2022-11-12T20:59:11;8.73;;;2.47;;
13439;SDS011;6792;57.698;11.946;2022-11-12T21:01:42;7.83;;;2.33;;
13439;SDS011;6792;57.698;11.946;2022-11-12T21:04:12;8.63;;;2.50;;
13439;SDS011;6792;57.698;11.946;2022-11-12T21:06:41;9.05;;;2.05;;
13439;SDS011;6792;57.698;11.946;2022-11-12T21:09:10;6.70;;;1.90;;
13439;SDS011;6792;57.698;11.946;2022-11-12T21:11:39;11.73;;;2.30;;
13439;SDS011;6792;57.698;11.946;2022-11-12T21:14:11;11.85;;;1.82;;
13439;SDS011;6792;57.698;11.946;2022-11-12T21:16:42;5.20;;;1.70;;
13439;SDS011;6792;57.698;11.946;2022-11-12T21:19:11;6.80;;;1.70;;
13439;SDS011;6792;57.698;11.946;2022-11-12T21:21:40;6.20;;;1.72;;
13439;SDS011;6792;57.698;11.946;2022-11-12T21:24:09;4.17;;;1.70;;
13439;SDS011;6792;57.698;11.946;2022-11-12T21:26:39;6.75;;;1.50;;
13439;SDS011;6792;57.698;11.946;2022-11-12T21:29:08;4.83;;;1.40;;
13439;SDS011;6792;57.698;11.946;2022-11-12T21:31:37;5.60;;;1.65;;
13439;SDS011;6792;57.698;11.946;2022-11-12T21:34:08;6.97;;;1.55;;
13439;SDS011;6792;57.698;11.946;2022-11-12T21:36:37;5.70;;;1.98;;
13439;SDS011;6792;57.698;11.946;2022-11-12T21:39:06;5.25;;;1.62;;
13439;SDS011;6792;57.698;11.946;2022-11-12T21:41:37;9.65;;;1.90;;
13439;SDS011;6792;57.698;11.946;2022-11-12T21:44:06;7.35;;;1.57;;
13439;SDS011;6792;57.698;11.946;2022-11-12T21:46:35;6.40;;;1.55;;
13439;SDS011;6792;57.698;11.946;2022-11-12T21:49:05;6.17;;;1.40;;
13439;SDS011;6792;57.698;11.946;2022-11-12T21:51:35;4.33;;;1.37;;
13439;SDS011;6792;57.698;11.946;2022-11-12T21:54:04;5.80;;;1.50;;
13439;SDS011;6792;57.698;11.946;2022-11-12T21:56:34;4.20;;;1.30;;
13439;SDS011;6792;57.698;11.946;2022-11-12T21:59:07;5.45;;;1.70;;
13439;SDS011;6792;57.698;11.946;2022-11-12T22:01:36;10.70;;;1.80;;
13439;SDS011;6792;57.698;11.946;2022-11-12T22:04:06;5.22;;;2.00;;
13439;SDS011;6792;57.698;11.946;2022-11-12T22:06:36;5.37;;;1.95;;
13439;SDS011;6792;57.698;11.946;2022-11-12T22:09:08;4.92;;;1.80;;
13439;SDS011;6792;57.698;11.946;2022-11-12T22:11:37;6.00;;;2.17;;
13439;SDS011;6792;57.698;11.946;2022-11-12T22:14:06;6.42;;;2.08;;
13439;SDS011;6792;57.698;11.946;2022-11-12T22:16:35;6.47;;;2.10;;
13439;SDS011;6792;57.698;11.946;2022-11-12T22:19:04;2.98;;;1.60;;
13439;SDS011;6792;57.698;11.946;2022-11-12T22:21:34;3.90;;;1.80;;
13439;SDS011;6792;57.698;11.946;2022-11-12T22:24:04;3.72;;;1.60;;
13439;SDS011;6792;57.698;11.946;2022-11-12T22:26:35;6.30;;;2.12;;
13439;SDS011;6792;57.698;11.946;2022-11-12T22:29:07;4.17;;;1.67;;
13439;SDS011;6792;57.698;11.946;2022-11-12T22:31:39;6.28;;;1.55;;
13439;SDS011;6792;57.698;11.946;2022-11-12T22:34:09;6.50;;;1.92;;
13439;SDS011;6792;57.698;11.946;2022-11-12T22:36:40;6.15;;;1.87;;
13439;SDS011;6792;57.698;11.946;2022-11-12T22:39:09;3.20;;;1.15;;
13439;SDS011;6792;57.698;11.946;2022-11-12T22:41:38;5.35;;;1.40;;
13439;SDS011;6792;57.698;11.946;2022-11-12T22:44:08;4.05;;;1.50;;
13439;SDS011;6792;57.698;11.946;2022-11-12T22:46:48;3.00;;;1.50;;
13439;SDS011;6792;57.698;11.946;2022-11-12T22:49:17;4.35;;;1.57;;
13439;SDS011;6792;57.698;11.946;2022-11-12T22:51:47;4.05;;;1.22;;
13439;SDS011;6792;57.698;11.946;2022-11-12T22:54:16;4.87;;;2.00;;
13439;SDS011;6792;57.698;11.946;2022-11-12T22:56:46;5.30;;;1.20;;
13439;SDS011;6792;57.698;11.946;2022-11-12T22:59:16;5.80;;;1.60;;
13439;SDS011;6792;57.698;11.946;2022-11-12T23:01:45;7.53;;;1.82;;
13439;SDS011;6792;57.698;11.946;2022-11-12T23:04:15;7.28;;;1.77;;
13439;SDS011;6792;57.698;11.946;2022-11-12T23:06:44;4.95;;;1.62;;
13439;SDS011;6792;57.698;11.946;2022-11-12T23:09:14;5.53;;;1.85;;
13439;SDS011;6792;57.698;11.946;2022-11-12T23:11:43;3.00;;;1.57;;
13439;SDS011;6792;57.698;11.946;2022-11-12T23:14:12;6.78;;;1.42;;
13439;SDS011;6792;57.698;11.946;2022-11-12T23:16:42;6.62;;;1.50;;
13439;SDS011;6792;57.698;11.946;2022-11-12T23:19:11;6.87;;;2.08;;
13439;SDS011;6792;57.698;11.946;2022-11-12T23:21:41;5.30;;;1.62;;
13439;SDS011;6792;57.698;11.946;2022-11-12T23:24:10;2.72;;;1.67;;
13439;SDS011;6792;57.698;11.946;2022-11-12T23:26:40;7.10;;;1.90;;
13439;SDS011;6792;57.698;11.946;2022-11-12T23:29:10;6.15;;;1.50;;
13439;SDS011;6792;57.698;11.946;2022-11-12T23:31:39;7.28;;;2.00;;
13439;SDS011;6792;57.698;11.946;2022-11-12T23:34:09;10.28;;;1.82;;
13439;SDS011;6792;57.698;11.946;2022-11-12T23:36:39;7.00;;;1.92;;
13439;SDS011;6792;57.698;11.946;2022-11-12T23:39:09;10.88;;;2.30;;
13439;SDS011;6792;57.698;11.946;2022-11-12T23:41:40;5.55;;;2.00;;
13439;SDS011;6792;57.698;11.946;2022-11-12T23:44:09;6.62;;;2.00;;
13439;SDS011;6792;57.698;11.946;2022-11-12T23:46:38;5.60;;;1.90;;
13439;SDS011;6792;57.698;11.946;2022-11-12T23:49:10;4.33;;;1.87;;
13439;SDS011;6792;57.698;11.946;2022-11-12T23:51:38;8.98;;;1.90;;
13439;SDS011;6792;57.698;11.946;2022-11-12T23:54:11;6.67;;;1.95;;
13439;SDS011;6792;57.698;11.946;2022-11-12T23:56:40;6.17;;;1.80;;
13439;SDS011;6792;57.698;11.946;2022-11-12T23:59:09;7.55;;;1.65;;
